Ramona, Kansas
Current Conditions -  °F | °C
As of 9:53 AM on Monday 24 Nov 2014 (Local Time) from KSLN Reporting Station
Clear Clear  
Wind Chill: 33°   Ceiling: Unl
Heat Index: 43°   Visibility: 10mi
Dew Point: 24°   Wind: 30mph
Humidity: 47%   Direction: 310°NW
Pressure: 29.83"   Gusts: 36mph
Location:  38.6°N, 97.06°W
Report Text: KSLN 241553Z 31026G31KT 10SM CLR 06/M04 A2983 RMK AO2 PK WND 31032/1536 SLP105 T00611044
Loading
Personal Weather Stations






























Interactive Weather Map New forecast layout! Learn more

10-Day Weather Forecast

Advertisements
Track Severe Weather on mobile